CYCQ

Chetwynd Airport

Chetwynd, British Columbia, Canada
METAR CYCQ 180100Z 23016KT 15SM FEW040 BKN120 OVC220 23/02 A2994 RMK CU1AC4CI3 ACSL E VIS S 8 DIST FU ALQDS LAST STFD OBS/NEXT 181300Z SLP150 DENSITY ALT 3500FT
Observed Flight Rules
Aug-18 @ 01:00 UTC (an hour ago) Visual Flight Rules
Wind Visibility Clouds
230° at 16 knots 15 miles
  • Few at 4,000' AGL
  • Broken at 12,000' AGL
  • Overcast at 22,000' AGL
Temperatures Readings
Current 23°C / 73°F
Dewpoint 2°C / 36°F
Humidity 25%
Altimeter 29.94" Hg
Pressure 1015 hPa
Elevation 609
METAR CYCQ 180100Z 23016KT 15SM FEW040 BKN120 OVC220 23/02 A2994 RMK CU1AC4CI3 ACSL E VIS S 8 DIST FU ALQDS LAST STFD OBS/NEXT 181300Z SLP150 DENSITY ALT 3500FT
Observed Flight Rules
Aug-18 @ 01:00 UTC
(an hour ago)
VFR
Wind Visibility
230° at 16 knots 15 miles
Clouds
  • Few at 4,000' AGL
  • Broken at 12,000' AGL
  • Overcast at 22,000' AGL
Temperature Dewpoint
23°C / 73°F 2°C / 36°F
Humidity Altimeter Pressure
25% 29.94" Hg 1015 hPa